Time;durP1;ratioP1;P1;durP2;ratioP2;P2;SDS_P1;SDS_P2;PMS_P1;PMS_P2;Temp;Humidity;BMP_temperature;BMP_pressure;BME280_temperature;BME280_humidity;BME280_pressure;Samples;Min_cycle;Max_cycle;Signal;HPM_P1;HPM_P2
2021/09/20 02:45:16;;;;;;;8.98;5.10;;;12.80;92.20;;;;;;5763625;24;20185;31
2021/09/20 02:47:43;;;;;;;9.15;4.97;;;12.80;92.00;;;;;;4742695;30;20045;-82
2021/09/20 02:50:11;;;;;;;6.70;4.95;;;12.80;91.80;;;;;;4730043;30;20041;-81
2021/09/20 02:52:38;;;;;;;6.90;5.10;;;12.80;91.80;;;;;;4744094;30;20044;-81
2021/09/20 02:55:07;;;;;;;11.68;5.30;;;12.80;91.60;;;;;;4726337;30;20037;-83
2021/09/20 02:57:33;;;;;;;8.43;4.50;;;12.80;91.50;;;;;;4733778;30;20028;-80
2021/09/20 02:59:59;;;;;;;8.15;5.43;;;13.00;91.30;;;;;;4733995;30;20060;-81
2021/09/20 03:02:25;;;;;;;11.55;5.65;;;13.00;91.20;;;;;;4748373;30;20068;-81
2021/09/20 03:04:51;;;;;;;8.98;5.13;;;13.00;91.20;;;;;;4733469;30;20029;-81
2021/09/20 03:07:17;;;;;;;13.10;5.55;;;13.00;91.10;;;;;;4733886;30;20033;-83
2021/09/20 03:09:42;;;;;;;11.80;5.07;;;13.10;90.90;;;;;;4733139;30;20104;-83
2021/09/20 03:12:08;;;;;;;8.15;4.88;;;13.10;90.60;;;;;;4733957;30;20041;-81
2021/09/20 03:14:34;;;;;;;8.15;5.22;;;13.10;90.70;;;;;;4733427;30;20095;-81
2021/09/20 03:17:00;;;;;;;7.10;4.80;;;13.20;90.90;;;;;;4726159;30;20036;-81
2021/09/20 03:19:26;;;;;;;16.20;5.60;;;13.20;90.50;;;;;;4733548;30;20044;-81
2021/09/20 03:21:52;;;;;;;9.57;5.18;;;13.20;90.50;;;;;;4733324;30;20036;-83
2021/09/20 03:24:18;;;;;;;9.35;5.60;;;13.30;90.50;;;;;;4747905;30;20045;-81
2021/09/20 03:26:43;;;;;;;8.80;4.97;;;13.30;90.30;;;;;;4748024;30;20037;-81
2021/09/20 03:29:09;;;;;;;10.13;5.35;;;13.30;90.20;;;;;;4749007;30;20044;-81
2021/09/20 03:31:35;;;;;;;9.27;5.28;;;13.30;90.20;;;;;;4732596;30;20413;-81
2021/09/20 03:34:01;;;;;;;10.80;5.38;;;13.40;90.10;;;;;;4733103;30;20036;-81
2021/09/20 03:36:27;;;;;;;9.05;5.90;;;13.40;90.30;;;;;;4748867;30;20233;-83
2021/09/20 03:38:53;;;;;;;10.90;5.88;;;13.50;90.20;;;;;;4747525;30;20043;-81
2021/09/20 03:41:18;;;;;;;9.48;5.55;;;13.40;89.60;;;;;;4733125;30;20088;-81
2021/09/20 03:43:44;;;;;;;10.18;5.05;;;13.50;90.00;;;;;;4747512;30;20040;-81
2021/09/20 03:46:11;;;;;;;10.32;5.00;;;13.40;90.10;;;;;;4742838;30;20057;-81
2021/09/20 03:48:36;;;;;;;8.37;5.50;;;13.40;89.50;;;;;;4729322;30;20245;-81
2021/09/20 03:51:03;;;;;;;16.08;5.47;;;13.50;89.90;;;;;;4729567;30;20041;-81
2021/09/20 03:53:29;;;;;;;9.57;4.82;;;13.50;90.00;;;;;;4729484;30;20320;-81
2021/09/20 03:55:55;;;;;;;12.93;5.00;;;13.50;89.60;;;;;;4729701;30;20084;-83
2021/09/20 03:58:21;;;;;;;8.20;5.53;;;13.50;89.30;;;;;;4729620;30;20051;-81
2021/09/20 04:00:47;;;;;;;8.88;4.70;;;13.50;89.50;;;;;;4729569;30;20329;-81
2021/09/20 04:03:13;;;;;;;8.10;5.18;;;13.60;89.80;;;;;;4730729;30;20033;-82
2021/09/20 04:05:39;;;;;;;6.95;4.60;;;13.60;89.80;;;;;;4728707;30;20052;-82
2021/09/20 04:08:05;;;;;;;10.48;5.63;;;13.60;89.70;;;;;;4729395;30;20040;-81
2021/09/20 04:10:31;;;;;;;7.53;5.78;;;13.60;90.00;;;;;;4729515;30;20044;-82
2021/09/20 04:12:57;;;;;;;9.32;4.57;;;13.60;90.10;;;;;;4729601;30;20423;-81
2021/09/20 04:15:22;;;;;;;6.85;4.97;;;13.50;90.00;;;;;;4729143;30;20029;-81
2021/09/20 04:17:48;;;;;;;10.32;5.03;;;13.50;90.20;;;;;;4730636;30;20268;-81
2021/09/20 04:20:14;;;;;;;10.30;5.22;;;13.50;90.20;;;;;;4729669;30;20044;-81
2021/09/20 04:22:41;;;;;;;10.00;4.88;;;13.50;90.10;;;;;;4715215;30;20145;-81
2021/09/20 04:25:08;;;;;;;8.65;5.40;;;13.50;90.00;;;;;;4715030;30;20044;-82
2021/09/20 04:27:34;;;;;;;8.52;5.18;;;13.50;90.10;;;;;;4728748;30;20041;-82
2021/09/20 04:30:00;;;;;;;9.48;6.15;;;13.50;90.20;;;;;;4714297;30;20112;-82
2021/09/20 04:32:26;;;;;;;11.20;5.80;;;13.50;90.00;;;;;;4728789;30;20033;-82
2021/09/20 04:34:51;;;;;;;9.20;5.97;;;13.50;90.00;;;;;;4714795;30;20107;-82
2021/09/20 04:37:18;;;;;;;9.73;5.10;;;13.40;89.60;;;;;;4714979;30;20043;-81
2021/09/20 04:39:45;;;;;;;11.67;5.27;;;13.50;89.70;;;;;;4714871;30;20324;-82
2021/09/20 04:42:11;;;;;;;;;;;13.50;89.40;;;;;;4729850;30;20299;-82
2021/09/20 04:44:36;;;;;;;9.50;4.83;;;13.50;89.30;;;;;;4715142;30;19918;-81
2021/09/20 04:47:02;;;;;;;10.88;6.13;;;13.50;89.30;;;;;;4721726;30;20062;-82
2021/09/20 04:49:28;;;;;;;7.63;5.53;;;13.50;89.30;;;;;;4714874;30;20049;-81
2021/09/20 04:51:54;;;;;;;6.85;4.63;;;13.60;89.20;;;;;;4714966;30;20116;-82
2021/09/20 04:54:20;;;;;;;10.80;5.65;;;13.60;89.00;;;;;;4714709;30;20340;-82
2021/09/20 04:56:45;;;;;;;8.27;5.13;;;13.60;89.00;;;;;;4714814;30;20033;-82
2021/09/20 04:59:11;;;;;;;8.60;5.18;;;13.60;88.80;;;;;;4711303;30;20030;-82
2021/09/20 05:01:37;;;;;;;13.85;6.10;;;13.70;89.10;;;;;;4711547;30;20037;-82
2021/09/20 05:04:03;;;;;;;9.77;5.38;;;13.70;88.30;;;;;;4713546;30;20289;-83
2021/09/20 05:06:29;;;;;;;13.40;5.57;;;13.60;87.70;;;;;;4713388;30;20036;-82
2021/09/20 05:08:55;;;;;;;11.63;5.22;;;13.70;87.20;;;;;;4714019;30;20068;-83
2021/09/20 05:11:20;;;;;;;7.50;5.13;;;13.60;86.80;;;;;;4728683;30;20036;-82
2021/09/20 05:13:46;;;;;;;10.80;5.45;;;13.60;87.00;;;;;;4729151;30;20025;-82
2021/09/20 05:16:12;;;;;;;13.85;5.55;;;13.60;87.50;;;;;;4713925;30;20025;-82
2021/09/20 05:18:38;;;;;;;11.77;5.78;;;13.70;87.00;;;;;;4724415;30;20033;-82
2021/09/20 05:21:04;;;;;;;10.68;5.15;;;13.80;87.50;;;;;;4720306;30;20058;-82
2021/09/20 05:23:29;;;;;;;7.20;5.47;;;13.80;87.30;;;;;;4714339;30;20331;-81
2021/09/20 05:25:55;;;;;;;7.55;5.47;;;13.80;87.00;;;;;;4715177;30;20087;-81
2021/09/20 05:28:22;;;;;;;11.80;5.65;;;13.80;87.20;;;;;;4720350;30;20220;-80
2021/09/20 05:30:47;;;;;;;9.45;5.45;;;13.80;87.50;;;;;;4731388;30;20069;-83
2021/09/20 05:33:15;;;;;;;12.35;5.32;;;13.80;86.80;;;;;;4729289;30;20060;-83
2021/09/20 05:35:41;;;;;;;8.10;5.40;;;13.80;86.90;;;;;;4714807;30;20332;-82
2021/09/20 05:38:07;;;;;;;8.00;5.00;;;13.80;86.50;;;;;;4714077;30;20052;-82
2021/09/20 05:40:33;;;;;;;9.32;5.40;;;13.80;87.10;;;;;;4713837;30;20094;-82
2021/09/20 05:43:00;;;;;;;9.13;5.03;;;13.90;87.50;;;;;;4713686;30;20055;-83
2021/09/20 05:45:27;;;;;;;7.83;5.30;;;13.90;87.70;;;;;;4712726;30;20029;-82
2021/09/20 05:47:53;;;;;;;14.80;5.45;;;13.90;87.70;;;;;;4713851;30;20350;-82
2021/09/20 05:50:20;;;;;;;8.33;5.17;;;13.90;87.10;;;;;;4713732;30;20071;-82
2021/09/20 05:52:47;;;;;;;8.82;5.57;;;14.00;87.60;;;;;;4713674;30;20687;-82
2021/09/20 05:55:14;;;;;;;8.70;5.45;;;14.00;87.10;;;;;;4713681;30;20046;-83
2021/09/20 05:57:40;;;;;;;14.63;5.80;;;14.00;87.10;;;;;;4727091;30;20031;-83
2021/09/20 06:00:07;;;;;;;12.07;5.30;;;14.10;87.20;;;;;;4713354;30;20209;-83
2021/09/20 06:02:37;;;;;;;12.18;5.82;;;14.20;87.40;;;;;;4713770;30;20224;-83
2021/09/20 06:05:03;;;;;;;7.93;5.47;;;14.20;87.60;;;;;;4727937;30;20033;-81
2021/09/20 06:07:28;;;;;;;9.45;4.88;;;14.30;86.60;;;;;;4713319;30;20036;-81
2021/09/20 06:09:54;;;;;;;14.20;5.13;;;14.30;86.20;;;;;;4713190;30;20354;-82
2021/09/20 06:12:20;;;;;;;8.02;5.15;;;14.40;85.90;;;;;;4713268;30;20334;-81
2021/09/20 06:14:46;;;;;;;14.65;5.13;;;14.50;86.10;;;;;;4713067;30;20040;-82
2021/09/20 06:17:12;;;;;;;11.77;5.80;;;14.60;86.00;;;;;;4713022;30;20036;-82
2021/09/20 06:19:38;;;;;;;10.50;5.85;;;14.50;85.00;;;;;;4713412;30;20028;-83
2021/09/20 06:22:04;;;;;;;9.85;5.18;;;14.50;85.60;;;;;;4713003;30;20048;-83
2021/09/20 06:24:30;;;;;;;10.85;5.80;;;14.50;85.90;;;;;;4712928;30;20244;-82
2021/09/20 06:26:55;;;;;;;12.55;6.07;;;14.60;86.10;;;;;;4713143;30;20037;-83
2021/09/20 06:29:21;;;;;;;13.98;6.47;;;14.50;85.20;;;;;;4712493;30;20037;-83
2021/09/20 06:31:47;;;;;;;9.38;5.32;;;14.50;85.90;;;;;;4727096;30;20063;-82
2021/09/20 06:34:13;;;;;;;13.00;5.80;;;14.40;85.10;;;;;;4712354;30;20052;-83
2021/09/20 06:36:40;;;;;;;12.13;5.47;;;14.50;85.10;;;;;;4726576;30;20307;-83
2021/09/20 06:39:08;;;;;;;10.85;6.03;;;14.50;85.60;;;;;;4705428;30;20034;-83
2021/09/20 06:41:34;;;;;;;8.93;5.10;;;14.50;85.30;;;;;;4724956;30;20112;-82
2021/09/20 06:44:02;;;;;;;13.50;5.80;;;14.50;85.10;;;;;;4727334;30;20289;-83
2021/09/20 06:46:29;;;;;;;9.52;5.20;;;14.50;85.50;;;;;;4712722;30;20129;-83
2021/09/20 06:48:55;;;;;;;11.63;5.40;;;14.50;86.60;;;;;;4724362;30;20064;-82
2021/09/20 06:51:21;;;;;;;14.23;5.75;;;14.50;85.50;;;;;;4724566;30;20049;-83
2021/09/20 06:53:48;;;;;;;12.52;6.28;;;14.50;85.10;;;;;;4724577;30;20207;-83
2021/09/20 06:56:14;;;;;;;11.35;5.95;;;14.60;85.30;;;;;;4724215;30;20111;-83
2021/09/20 06:58:39;;;;;;;11.15;5.18;;;14.60;85.40;;;;;;4721943;30;20059;-83
2021/09/20 07:01:05;;;;;;;10.57;5.63;;;14.70;85.40;;;;;;4714380;30;20029;-81
2021/09/20 07:03:31;;;;;;;10.02;6.38;;;14.70;85.90;;;;;;4712323;30;20036;-83
2021/09/20 07:05:57;;;;;;;19.85;7.43;;;14.70;85.10;;;;;;4712694;30;20029;-82
2021/09/20 07:08:22;;;;;;;9.45;5.72;;;14.80;84.70;;;;;;4712507;30;20037;-82
2021/09/20 07:10:48;;;;;;;10.13;5.88;;;14.90;84.60;;;;;;4712837;30;20041;-83
2021/09/20 07:13:14;;;;;;;8.63;5.95;;;14.90;84.50;;;;;;4712201;30;20112;-83
2021/09/20 07:15:40;;;;;;;11.45;5.78;;;14.90;83.50;;;;;;4711861;30;20044;-83
2021/09/20 07:18:06;;;;;;;9.85;5.22;;;14.90;84.00;;;;;;4726708;30;20100;-83
2021/09/20 07:20:33;;;;;;;9.18;6.07;;;15.00;84.20;;;;;;4712325;30;20037;-83
2021/09/20 07:22:58;;;;;;;11.97;5.83;;;15.10;83.70;;;;;;4726538;30;20041;-83
2021/09/20 07:25:24;;;;;;;9.88;5.80;;;15.20;82.70;;;;;;4726782;30;20059;-83
2021/09/20 07:27:50;;;;;;;11.55;5.47;;;15.20;82.70;;;;;;4726496;30;20229;-83
2021/09/20 07:30:17;;;;;;;16.30;5.95;;;15.30;83.00;;;;;;4712289;30;20063;-83
2021/09/20 07:32:49;;;;;;;8.85;5.60;;;15.40;82.20;;;;;;4711844;30;20328;-83
2021/09/20 07:35:16;;;;;;;10.75;5.28;;;15.40;81.50;;;;;;4719194;30;20106;-83
2021/09/20 07:37:46;;;;;;;;;;;15.40;81.00;;;;;;4719697;30;20391;-81
2021/09/20 07:40:13;;;;;;;14.75;6.68;;;15.40;81.90;;;;;;4727760;30;19949;-83
2021/09/20 07:42:39;;;;;;;13.43;6.13;;;15.50;82.40;;;;;;4730203;30;20127;-82
2021/09/20 07:45:08;;;;;;;8.75;5.45;;;15.50;81.10;;;;;;4726576;30;20037;-83
2021/09/20 07:47:34;;;;;;;13.73;5.78;;;15.70;81.60;;;;;;4712369;30;20061;-83
2021/09/20 07:50:00;;;;;;;8.73;6.10;;;15.70;80.80;;;;;;4711891;30;20041;-82
2021/09/20 07:52:26;;;;;;;12.27;5.72;;;15.70;79.60;;;;;;4729022;30;20044;-83
2021/09/20 07:54:52;;;;;;;8.07;5.13;;;15.70;79.40;;;;;;4715489;30;20033;-83
2021/09/20 07:57:18;;;;;;;8.45;5.57;;;15.80;79.50;;;;;;4714716;30;20228;-83
2021/09/20 07:59:45;;;;;;;10.60;5.65;;;15.80;79.20;;;;;;4714716;30;20033;-83
2021/09/20 08:02:11;;;;;;;;;;;16.00;78.40;;;;;;4715645;30;20041;-83
2021/09/20 08:04:37;;;;;;;15.67;6.00;;;16.00;77.10;;;;;;4730674;30;19917;-83
2021/09/20 08:07:03;;;;;;;13.55;6.43;;;16.10;78.20;;;;;;4730539;30;20037;-83
2021/09/20 08:09:29;;;;;;;12.85;5.13;;;16.20;78.00;;;;;;4715093;30;20041;-83
2021/09/20 08:11:55;;;;;;;10.23;5.47;;;16.20;76.60;;;;;;4714945;30;20718;-83
2021/09/20 08:14:21;;;;;;;9.63;5.85;;;16.30;76.00;;;;;;4714974;30;20033;-83
2021/09/20 08:16:46;;;;;;;9.77;5.82;;;16.30;75.00;;;;;;4716121;30;20029;-83
2021/09/20 08:19:12;;;;;;;11.38;5.60;;;16.30;76.00;;;;;;4729457;30;20040;-83
2021/09/20 08:21:38;;;;;;;10.25;5.90;;;16.40;75.70;;;;;;4728882;30;20032;-83
2021/09/20 08:24:04;;;;;;;12.38;6.38;;;16.50;75.30;;;;;;4729113;30;20041;-83
2021/09/20 08:26:30;;;;;;;10.07;5.72;;;16.60;75.60;;;;;;4717341;30;20033;-83
2021/09/20 08:28:56;;;;;;;9.95;6.07;;;16.60;74.20;;;;;;4729169;30;20390;-83
2021/09/20 08:31:22;;;;;;;9.40;5.72;;;16.70;74.50;;;;;;4717373;30;20048;-83
2021/09/20 08:33:48;;;;;;;9.93;6.07;;;16.80;75.20;;;;;;4697495;30;20097;-83
2021/09/20 08:36:14;;;;;;;9.20;6.10;;;16.90;73.90;;;;;;4716346;30;20057;-83
2021/09/20 08:38:40;;;;;;;10.18;5.40;;;16.90;74.90;;;;;;4713252;30;20037;-83
2021/09/20 08:41:06;;;;;;;13.97;5.87;;;17.00;74.40;;;;;;4728346;30;20029;-83
2021/09/20 08:43:32;;;;;;;9.82;6.20;;;17.20;73.80;;;;;;4726756;30;20117;-83
2021/09/20 08:46:06;;;;;;;16.17;5.97;;;17.30;72.80;;;;;;4717130;30;20041;-83
2021/09/20 08:48:39;;;;;;;12.43;6.10;;;17.30;72.60;;;;;;4713932;30;20425;-83
2021/09/20 08:51:05;;;;;;;8.80;5.75;;;17.40;71.30;;;;;;4713268;30;20343;-84
2021/09/20 08:53:31;;;;;;;11.90;6.30;;;17.60;71.00;;;;;;4727996;30;20132;-83
2021/09/20 08:55:58;;;;;;;9.15;5.65;;;17.60;71.50;;;;;;4728092;30;20225;-83
2021/09/20 08:58:25;;;;;;;18.10;6.55;;;17.60;72.00;;;;;;4713681;30;20100;-83
2021/09/20 09:00:51;;;;;;;11.55;6.32;;;17.60;70.60;;;;;;4713429;30;20210;-82
2021/09/20 09:03:24;;;;;;;12.70;6.93;;;17.60;70.10;;;;;;4713859;30;20083;-83
2021/09/20 09:05:51;;;;;;;24.08;6.47;;;17.60;70.60;;;;;;4728119;30;20041;-83
2021/09/20 09:08:18;;;;;;;22.15;6.35;;;17.60;68.10;;;;;;4713976;30;20057;-83
2021/09/20 09:10:58;;;;;;;12.20;5.68;;;17.50;68.50;;;;;;4713682;30;20244;-83
2021/09/20 09:13:34;;;;;;;14.00;5.90;;;17.50;68.90;;;;;;4729412;30;20033;-83
2021/09/20 09:16:26;;;;;;;14.45;6.35;;;17.60;69.20;;;;;;4728189;30;20032;-82
2021/09/20 09:18:58;;;;;;;13.07;5.97;;;17.60;68.90;;;;;;4713499;30;20351;-83
2021/09/20 09:21:28;;;;;;;17.42;5.85;;;17.60;69.30;;;;;;4729358;30;20037;-83
2021/09/20 09:24:12;;;;;;;10.88;5.43;;;17.80;68.50;;;;;;4713577;30;20041;-83
2021/09/20 09:26:37;;;;;;;12.88;5.80;;;17.90;67.80;;;;;;4713728;30;20044;-83
2021/09/20 09:29:21;;;;;;;11.15;5.75;;;18.00;68.10;;;;;;4727892;30;20033;-81
2021/09/20 09:31:53;;;;;;;10.27;5.97;;;18.10;66.10;;;;;;4713302;30;20052;-83
2021/09/20 09:34:24;;;;;;;10.30;5.80;;;18.10;67.40;;;;;;4728466;30;20177;-83
2021/09/20 09:36:51;;;;;;;10.05;4.50;;;18.30;65.00;;;;;;4713574;30;20032;-82
2021/09/20 09:39:30;;;;;;;12.57;5.32;;;18.30;65.40;;;;;;4713381;30;20087;-82
2021/09/20 09:41:56;;;;;;;7.18;4.97;;;18.60;65.50;;;;;;4727902;30;20040;-83
2021/09/20 09:44:31;;;;;;;10.20;4.88;;;18.80;64.30;;;;;;4713323;30;20025;-83
2021/09/20 09:46:58;;;;;;;12.70;4.68;;;19.00;63.30;;;;;;4713073;30;20053;-83
2021/09/20 09:49:26;;;;;;;7.88;4.97;;;19.00;63.80;;;;;;4727900;30;20140;-83
2021/09/20 09:52:02;;;;;;;13.07;5.20;;;19.00;63.10;;;;;;4713408;30;20119;-82
2021/09/20 09:54:29;;;;;;;8.15;4.75;;;19.20;63.40;;;;;;4728170;30;20104;-83
2021/09/20 09:57:14;;;;;;;;;;;19.20;61.80;;;;;;4728335;30;20103;-83
2021/09/20 09:59:40;;;;;;;6.68;4.50;;;19.30;61.00;;;;;;4728024;30;19911;-81
2021/09/20 10:02:27;;;;;;;9.10;4.60;;;19.40;62.50;;;;;;4727344;30;20045;-81
2021/09/20 10:05:01;;;;;;;11.23;5.70;;;19.70;64.50;;;;;;4712165;30;20041;-81
2021/09/20 10:07:30;;;;;;;7.78;4.85;;;19.90;61.70;;;;;;4727353;30;20045;-82
2021/09/20 10:09:58;;;;;;;8.10;5.15;;;19.90;61.10;;;;;;4728370;30;20049;-82
2021/09/20 10:12:26;;;;;;;10.57;4.47;;;19.70;59.30;;;;;;4727013;30;20041;-81
2021/09/20 10:14:56;;;;;;;13.70;4.38;;;19.40;59.70;;;;;;4712551;30;20033;-81
2021/09/20 10:17:22;;;;;;;8.90;5.50;;;19.30;61.20;;;;;;4716593;30;20034;-81
2021/09/20 10:19:49;;;;;;;8.88;4.78;;;19.40;62.00;;;;;;4726469;30;20033;-82
2021/09/20 10:22:16;;;;;;;8.35;4.47;;;19.50;60.70;;;;;;4726758;30;20048;-82
2021/09/20 10:24:47;;;;;;;11.52;4.88;;;19.50;61.10;;;;;;4727068;30;20108;-81
2021/09/20 10:27:14;;;;;;;7.78;4.63;;;19.60;62.00;;;;;;4726934;30;20360;-82
2021/09/20 10:29:45;;;;;;;6.97;4.40;;;19.70;61.60;;;;;;4726400;30;20021;-82
2021/09/20 10:32:11;;;;;;;7.78;4.78;;;19.80;61.30;;;;;;4708100;30;20049;-79
2021/09/20 10:34:37;;;;;;;7.68;4.55;;;19.70;59.30;;;;;;4711538;30;20109;-79
2021/09/20 10:37:13;;;;;;;6.68;4.45;;;19.80;61.40;;;;;;4711821;30;20037;-79
2021/09/20 10:39:52;;;;;;;9.55;5.85;;;19.90;60.20;;;;;;4722364;30;20029;-80
2021/09/20 10:42:36;;;;;;;7.95;4.00;;;19.90;58.10;;;;;;4716288;30;20367;-81
2021/09/20 10:45:34;;;;;;;7.05;4.82;;;19.70;57.30;;;;;;4696161;30;20272;-80
2021/09/20 10:48:15;;;;;;;6.40;4.13;;;19.50;59.00;;;;;;4677222;30;20066;-81
2021/09/20 10:50:59;;;;;;;7.45;3.95;;;19.60;62.00;;;;;;4678865;30;20070;-81
2021/09/20 10:53:33;;;;;;;7.40;4.00;;;20.00;60.70;;;;;;4663810;30;20058;-81
2021/09/20 10:56:08;;;;;;;5.28;3.80;;;20.00;58.00;;;;;;4664461;30;20042;-81
2021/09/20 10:58:38;;;;;;;5.07;3.65;;;20.30;58.10;;;;;;4678657;30;20296;-80
2021/09/20 11:01:14;;;;;;;9.20;4.30;;;20.40;57.60;;;;;;4665296;30;20230;-81
2021/09/20 11:03:47;;;;;;;7.63;4.68;;;20.40;57.20;;;;;;4688433;30;20260;-80
2021/09/20 11:06:17;;;;;;;8.77;4.50;;;20.70;56.70;;;;;;4677623;30;20056;-80
2021/09/20 11:08:46;;;;;;;11.20;3.33;;;20.70;56.00;;;;;;4692000;30;20045;-81
2021/09/20 11:11:36;;;;;;;12.82;4.25;;;20.60;54.30;;;;;;4663270;30;20581;-80
2021/09/20 11:14:19;;;;;;;9.75;3.72;;;20.50;55.70;;;;;;4663349;30;20041;-81
2021/09/20 11:16:52;;;;;;;7.85;4.18;;;20.50;55.90;;;;;;4686052;30;20083;-81
2021/09/20 11:19:24;;;;;;;4.82;3.45;;;20.60;56.50;;;;;;4695307;30;20042;-81
2021/09/20 11:22:11;;;;;;;5.88;4.20;;;20.50;56.60;;;;;;4680879;30;20041;-81
2021/09/20 11:24:48;;;;;;;6.63;4.30;;;20.30;56.30;;;;;;4709192;30;20391;-81
2021/09/20 11:27:35;;;;;;;9.20;4.65;;;20.20;55.90;;;;;;4723756;30;20268;-80
2021/09/20 11:30:15;;;;;;;9.07;4.03;;;20.10;57.90;;;;;;4712651;30;20041;-81
2021/09/20 11:32:55;;;;;;;6.93;3.83;;;20.00;57.20;;;;;;4698152;30;20045;-81
2021/09/20 11:35:24;;;;;;;6.03;3.67;;;20.00;57.50;;;;;;4698368;30;20037;-81
2021/09/20 11:37:49;;;;;;;5.22;3.65;;;20.10;55.90;;;;;;4712440;30;20045;-81
2021/09/20 11:40:17;;;;;;;9.15;4.20;;;20.10;57.80;;;;;;4712978;30;20083;-81
2021/09/20 11:42:47;;;;;;;7.80;3.35;;;20.10;56.20;;;;;;4714909;30;20041;-81
2021/09/20 11:45:21;;;;;;;9.35;3.70;;;20.00;56.50;;;;;;4716431;30;20054;-81
2021/09/20 11:47:49;;;;;;;5.28;3.95;;;19.80;56.50;;;;;;4717039;30;20079;-80
2021/09/20 11:50:22;;;;;;;6.10;3.60;;;19.80;57.30;;;;;;4716090;30;20332;-80
2021/09/20 11:53:03;;;;;;;6.63;4.13;;;19.60;56.40;;;;;;4730513;30;20037;-80
2021/09/20 11:55:34;;;;;;;8.57;3.85;;;19.40;57.60;;;;;;4730425;30;20096;-80
2021/09/20 11:58:05;;;;;;;15.05;5.03;;;19.40;58.20;;;;;;4730802;30;20033;-80
2021/09/20 12:00:33;;;;;;;7.80;4.57;;;19.50;58.30;;;;;;4730463;30;20060;-80
2021/09/20 12:03:03;;;;;;;8.68;4.43;;;19.50;58.10;;;;;;4730735;30;20072;-81
2021/09/20 12:05:34;;;;;;;4.70;3.92;;;19.50;58.90;;;;;;4716144;30;20064;-80
2021/09/20 12:08:03;;;;;;;6.45;4.30;;;19.50;58.50;;;;;;4699574;30;20067;-81
2021/09/20 12:10:31;;;;;;;7.50;4.22;;;19.50;58.30;;;;;;4713018;30;20341;-81
2021/09/20 12:13:00;;;;;;;9.32;3.92;;;19.60;59.50;;;;;;4713046;30;20048;-80
2021/09/20 12:15:29;;;;;;;6.55;3.33;;;19.60;58.10;;;;;;4727340;30;20038;-81
2021/09/20 12:18:00;;;;;;;6.55;3.72;;;19.60;56.60;;;;;;4730078;30;20037;-80
2021/09/20 12:20:48;;;;;;;4.32;3.45;;;19.60;57.10;;;;;;4729975;30;20339;-80
2021/09/20 12:23:45;;;;;;;7.93;3.20;;;19.70;55.70;;;;;;4730406;30;20328;-80
2021/09/20 12:26:19;;;;;;;5.53;3.47;;;19.80;56.90;;;;;;4717128;30;20366;-81
2021/09/20 12:29:01;;;;;;;4.70;3.17;;;19.80;57.80;;;;;;4714038;30;20117;-80
2021/09/20 12:31:36;;;;;;;7.13;3.80;;;19.90;57.20;;;;;;4700264;30;20072;-81
2021/09/20 12:34:11;;;;;;;11.27;4.00;;;19.80;57.00;;;;;;4700127;30;20294;-80
2021/09/20 12:36:46;;;;;;;8.75;3.55;;;19.60;56.90;;;;;;4714549;30;20082;-81
2021/09/20 12:39:11;;;;;;;10.23;3.58;;;19.50;58.00;;;;;;4714903;30;20078;-81
2021/09/20 12:41:41;;;;;;;10.55;3.50;;;19.40;57.40;;;;;;4714676;30;20076;-80
2021/09/20 12:44:09;;;;;;;5.25;3.55;;;19.30;57.60;;;;;;4686421;30;20041;-80
2021/09/20 12:46:36;;;;;;;6.00;2.85;;;19.20;57.30;;;;;;4688205;30;20057;-82
2021/09/20 12:49:04;;;;;;;5.13;3.28;;;19.20;58.00;;;;;;4698624;30;20033;-82
2021/09/20 12:51:40;;;;;;;5.88;3.80;;;19.20;58.00;;;;;;4713277;30;20049;-83
2021/09/20 12:54:18;;;;;;;4.70;3.33;;;19.30;57.00;;;;;;4699710;30;20262;-82
2021/09/20 12:56:44;;;;;;;3.97;3.20;;;19.30;57.50;;;;;;4699233;30;20045;-83
2021/09/20 12:59:18;;;;;;;5.70;2.90;;;19.20;56.70;;;;;;4713741;30;20044;-82
2021/09/20 13:02:09;;;;;;;9.43;3.53;;;19.30;57.30;;;;;;4698752;30;20060;-82
2021/09/20 13:04:37;;;;;;;7.00;3.63;;;19.30;57.30;;;;;;4729723;30;20333;-82
2021/09/20 13:07:21;;;;;;;5.80;3.65;;;19.30;57.30;;;;;;4728121;30;20048;-83
2021/09/20 13:09:59;;;;;;;5.97;4.00;;;19.30;57.50;;;;;;4713345;30;20277;-82
2021/09/20 13:12:37;;;;;;;6.38;3.88;;;19.20;57.60;;;;;;4712851;30;20041;-82
2021/09/20 13:15:06;;;;;;;6.55;3.75;;;19.00;57.30;;;;;;4714125;30;20054;-82
2021/09/20 13:17:43;;;;;;;9.35;4.13;;;18.90;58.10;;;;;;4713413;30;20048;-82
2021/09/20 13:20:23;;;;;;;10.85;4.07;;;19.00;58.50;;;;;;4728073;30;20209;-82
2021/09/20 13:22:59;;;;;;;5.93;3.78;;;19.40;59.10;;;;;;4728042;30;20041;-82
2021/09/20 13:25:38;;;;;;;5.07;3.63;;;19.50;57.30;;;;;;4727980;30;20032;-82
2021/09/20 13:28:07;;;;;;;5.47;3.97;;;19.50;56.60;;;;;;4728162;30;20036;-82
2021/09/20 13:30:34;;;;;;;7.20;4.25;;;19.40;56.70;;;;;;4727865;30;20044;-82
2021/09/20 13:33:00;;;;;;;6.93;4.00;;;19.40;57.40;;;;;;4727475;30;20251;-82
2021/09/20 13:35:29;;;;;;;9.03;4.40;;;19.50;57.00;;;;;;4727213;30;20037;-82
2021/09/20 13:37:55;;;;;;;13.13;4.03;;;19.40;56.60;;;;;;4724547;30;20386;-83
2021/09/20 13:40:21;;;;;;;5.13;3.87;;;19.30;57.20;;;;;;4729400;30;20387;-83
2021/09/20 13:42:48;;;;;;;6.50;4.20;;;19.50;58.50;;;;;;4713740;30;20470;-82
2021/09/20 13:45:14;;;;;;;14.70;4.55;;;19.40;58.00;;;;;;4722380;30;20115;-81
2021/09/20 13:47:41;;;;;;;7.03;4.50;;;19.40;58.40;;;;;;4712395;30;20102;-82
2021/09/20 13:50:08;;;;;;;9.73;4.07;;;19.40;59.20;;;;;;4726189;30;20037;-83
2021/09/20 13:52:34;;;;;;;5.60;3.85;;;19.40;58.20;;;;;;4713780;30;20068;-82
2021/09/20 13:55:00;;;;;;;6.93;4.10;;;19.30;57.70;;;;;;4713937;30;20061;-82
2021/09/20 13:57:26;;;;;;;7.30;4.40;;;19.30;58.20;;;;;;4714199;30;20040;-82
2021/09/20 13:59:54;;;;;;;10.82;3.90;;;19.30;58.50;;;;;;4698543;30;20087;-82
2021/09/20 14:02:21;;;;;;;7.93;3.60;;;19.20;58.00;;;;;;4713099;30;20043;-82
2021/09/20 14:04:47;;;;;;;16.23;4.32;;;19.10;58.30;;;;;;4713054;30;20241;-82
2021/09/20 14:07:13;;;;;;;7.13;4.30;;;19.00;58.70;;;;;;4712822;30;20041;-82
2021/09/20 14:09:40;;;;;;;6.80;4.40;;;19.00;59.00;;;;;;4713144;30;20240;-82
2021/09/20 14:12:06;;;;;;;11.75;4.13;;;19.00;58.90;;;;;;4713195;30;20052;-82
2021/09/20 14:14:31;;;;;;;7.20;4.00;;;19.00;60.00;;;;;;4713255;30;20120;-82
2021/09/20 14:16:58;;;;;;;6.22;3.80;;;19.00;58.70;;;;;;4712533;30;20355;-82
2021/09/20 14:19:24;;;;;;;9.43;4.38;;;18.90;58.20;;;;;;4698276;30;20052;-83
2021/09/20 14:21:50;;;;;;;6.87;3.87;;;18.90;58.60;;;;;;4712712;30;20045;-82
2021/09/20 14:24:16;;;;;;;11.50;3.88;;;18.90;58.80;;;;;;4712678;30;20048;-82
2021/09/20 14:26:42;;;;;;;8.25;3.53;;;18.90;58.50;;;;;;4698264;30;20090;-82
2021/09/20 14:29:07;;;;;;;5.68;3.50;;;19.00;58.90;;;;;;4709418;30;20060;-83
2021/09/20 14:31:33;;;;;;;9.50;3.72;;;18.90;58.70;;;;;;4709649;30;20045;-82
2021/09/20 14:33:59;;;;;;;4.82;3.45;;;18.90;59.90;;;;;;4712292;30;20033;-81
2021/09/20 14:36:25;;;;;;;5.93;3.83;;;19.10;60.10;;;;;;4711070;30;20044;-81
2021/09/20 14:38:50;;;;;;;7.30;4.18;;;19.10;59.20;;;;;;4711829;30;20028;-82
2021/09/20 14:41:16;;;;;;;7.57;3.75;;;19.10;58.70;;;;;;4712223;30;20084;-84
2021/09/20 14:43:42;;;;;;;5.60;3.67;;;19.10;59.20;;;;;;4709881;30;20037;-85
2021/09/20 14:46:09;;;;;;;7.20;3.50;;;19.20;59.50;;;;;;4723920;30;20400;-83
2021/09/20 14:48:36;;;;;;;8.93;4.05;;;19.00;58.50;;;;;;4714653;30;20149;-84
2021/09/20 14:51:07;;;;;;;;;;;19.00;58.90;;;;;;4729852;30;20041;-84
2021/09/20 14:53:34;;;;;;;8.85;3.50;;;18.90;58.90;;;;;;4727520;30;19961;-83
2021/09/20 14:56:00;;;;;;;6.03;3.85;;;18.90;60.00;;;;;;4730610;30;20354;-83
2021/09/20 14:58:26;;;;;;;5.35;3.92;;;19.00;59.90;;;;;;4730800;30;20087;-84
2021/09/20 15:00:52;;;;;;;12.82;3.60;;;18.90;58.20;;;;;;4730332;30;20045;-84
2021/09/20 15:03:21;;;;;;;5.30;3.40;;;18.80;58.40;;;;;;4730570;30;20067;-83
2021/09/20 15:05:47;;;;;;;4.43;2.80;;;18.60;57.30;;;;;;4730390;30;20047;-84
2021/09/20 15:08:13;;;;;;;4.57;3.03;;;18.60;56.40;;;;;;4730371;30;20040;-84
2021/09/20 15:10:39;;;;;;;9.87;2.90;;;18.50;55.90;;;;;;4729565;30;20116;-84
2021/09/20 15:13:05;;;;;;;4.68;2.90;;;18.50;56.10;;;;;;4729886;30;20043;-84
2021/09/20 15:15:30;;;;;;;5.85;2.55;;;18.40;55.80;;;;;;4730598;30;20201;-84
2021/09/20 15:17:56;;;;;;;5.10;2.72;;;18.40;56.10;;;;;;4715470;30;20042;-83
2021/09/20 15:20:22;;;;;;;3.92;2.60;;;18.40;55.30;;;;;;4715428;30;20025;-84
2021/09/20 15:22:49;;;;;;;4.85;2.88;;;18.40;56.50;;;;;;4729369;30;20036;-84
2021/09/20 15:25:16;;;;;;;3.78;2.78;;;18.50;56.90;;;;;;4715606;30;20041;-84
2021/09/20 15:27:43;;;;;;;5.13;2.90;;;18.40;56.10;;;;;;4722952;30;20035;-84
2021/09/20 15:30:14;;;;;;;7.97;3.47;;;18.40;56.00;;;;;;4747351;30;20091;-84
2021/09/20 15:32:40;;;;;;;4.68;3.00;;;18.20;56.60;;;;;;4748067;30;20232;-84
2021/09/20 15:35:07;;;;;;;10.17;2.73;;;18.20;56.80;;;;;;4733018;30;20043;-84
2021/09/20 15:37:34;;;;;;;4.20;2.78;;;18.20;57.00;;;;;;4733265;30;20033;-83